sensor_id;sensor_type;location;lat;lon;timestamp;pressure;altitude;pressure_sealevel;temperature
74485;BMP280;62942;52.462;10.846;2023-10-31T00:01:01;98750;;;
74485;BMP280;62942;52.462;10.846;2023-10-31T00:02:11;98740;;;
74485;BMP280;62942;52.462;10.846;2023-10-31T00:03:21;98740;;;
74485;BMP280;62942;52.462;10.846;2023-10-31T00:04:31;98740;;;
74485;BMP280;62942;52.462;10.846;2023-10-31T00:05:41;98740;;;
74485;BMP280;62942;52.462;10.846;2023-10-31T00:06:51;98740;;;
74485;BMP280;62942;52.462;10.846;2023-10-31T00:08:01;98740;;;
74485;BMP280;62942;52.462;10.846;2023-10-31T00:09:11;98740;;;
74485;BMP280;62942;52.462;10.846;2023-10-31T00:10:11;98740;;;
74485;BMP280;62942;52.462;10.846;2023-10-31T00:11:21;98740;;;
74485;BMP280;62942;52.462;10.846;2023-10-31T00:12:31;98740;;;
74485;BMP280;62942;52.462;10.846;2023-10-31T00:13:41;98740;;;
74485;BMP280;62942;52.462;10.846;2023-10-31T00:14:51;98740;;;
74485;BMP280;62942;52.462;10.846;2023-10-31T00:16:01;98740;;;
74485;BMP280;62942;52.462;10.846;2023-10-31T00:17:11;98740;;;
74485;BMP280;62942;52.462;10.846;2023-10-31T00:18:21;98740;;;
74485;BMP280;62942;52.462;10.846;2023-10-31T00:19:21;98740;;;
74485;BMP280;62942;52.462;10.846;2023-10-31T00:20:31;98740;;;
74485;BMP280;62942;52.462;10.846;2023-10-31T00:21:41;98740;;;
74485;BMP280;62942;52.462;10.846;2023-10-31T00:22:51;98740;;;
74485;BMP280;62942;52.462;10.846;2023-10-31T00:24:01;98740;;;
74485;BMP280;62942;52.462;10.846;2023-10-31T00:25:11;98740;;;
74485;BMP280;62942;52.462;10.846;2023-10-31T00:26:11;98740;;;
74485;BMP280;62942;52.462;10.846;2023-10-31T00:27:21;98740;;;
74485;BMP280;62942;52.462;10.846;2023-10-31T00:28:31;98740;;;
74485;BMP280;62942;52.462;10.846;2023-10-31T00:29:41;98740;;;
74485;BMP280;62942;52.462;10.846;2023-10-31T00:30:51;98730;;;
74485;BMP280;62942;52.462;10.846;2023-10-31T00:32:01;98730;;;
74485;BMP280;62942;52.462;10.846;2023-10-31T00:33:01;98720;;;
74485;BMP280;62942;52.462;10.846;2023-10-31T00:34:11;98720;;;
74485;BMP280;62942;52.462;10.846;2023-10-31T00:35:21;98720;;;
74485;BMP280;62942;52.462;10.846;2023-10-31T00:36:21;98730;;;
74485;BMP280;62942;52.462;10.846;2023-10-31T00:37:31;98720;;;
74485;BMP280;62942;52.462;10.846;2023-10-31T00:38:41;98730;;;
74485;BMP280;62942;52.462;10.846;2023-10-31T00:39:51;98730;;;
74485;BMP280;62942;52.462;10.846;2023-10-31T00:41:02;98730;;;
74485;BMP280;62942;52.462;10.846;2023-10-31T00:42:11;98740;;;
74485;BMP280;62942;52.462;10.846;2023-10-31T00:43:21;98740;;;
74485;BMP280;62942;52.462;10.846;2023-10-31T00:44:21;98740;;;
74485;BMP280;62942;52.462;10.846;2023-10-31T00:45:31;98740;;;
74485;BMP280;62942;52.462;10.846;2023-10-31T00:46:41;98740;;;
74485;BMP280;62942;52.462;10.846;2023-10-31T00:47:51;98730;;;
74485;BMP280;62942;52.462;10.846;2023-10-31T00:49:02;98740;;;
74485;BMP280;62942;52.462;10.846;2023-10-31T00:50:11;98720;;;
74485;BMP280;62942;52.462;10.846;2023-10-31T00:51:11;98730;;;
74485;BMP280;62942;52.462;10.846;2023-10-31T00:52:21;98740;;;
74485;BMP280;62942;52.462;10.846;2023-10-31T00:53:21;98740;;;
74485;BMP280;62942;52.462;10.846;2023-10-31T00:54:31;98730;;;
74485;BMP280;62942;52.462;10.846;2023-10-31T00:55:31;98730;;;
74485;BMP280;62942;52.462;10.846;2023-10-31T00:56:41;98730;;;
74485;BMP280;62942;52.462;10.846;2023-10-31T00:57:51;98730;;;
74485;BMP280;62942;52.462;10.846;2023-10-31T00:58:51;98740;;;
74485;BMP280;62942;52.462;10.846;2023-10-31T01:00:01;98740;;;
74485;BMP280;62942;52.462;10.846;2023-10-31T01:01:01;98740;;;
74485;BMP280;62942;52.462;10.846;2023-10-31T01:02:11;98730;;;
74485;BMP280;62942;52.462;10.846;2023-10-31T01:03:21;98740;;;
74485;BMP280;62942;52.462;10.846;2023-10-31T01:04:21;98730;;;
74485;BMP280;62942;52.462;10.846;2023-10-31T01:05:31;98720;;;
74485;BMP280;62942;52.462;10.846;2023-10-31T01:06:41;98720;;;
74485;BMP280;62942;52.462;10.846;2023-10-31T01:07:41;98720;;;
74485;BMP280;62942;52.462;10.846;2023-10-31T01:08:51;98720;;;
74485;BMP280;62942;52.462;10.846;2023-10-31T01:10:01;98730;;;
74485;BMP280;62942;52.462;10.846;2023-10-31T01:11:11;98730;;;
74485;BMP280;62942;52.462;10.846;2023-10-31T01:12:11;98730;;;
74485;BMP280;62942;52.462;10.846;2023-10-31T01:13:21;98730;;;
74485;BMP280;62942;52.462;10.846;2023-10-31T01:14:21;98720;;;
74485;BMP280;62942;52.462;10.846;2023-10-31T01:15:31;98720;;;
74485;BMP280;62942;52.462;10.846;2023-10-31T01:16:41;98720;;;
74485;BMP280;62942;52.462;10.846;2023-10-31T01:17:51;98720;;;
74485;BMP280;62942;52.462;10.846;2023-10-31T01:19:01;98730;;;
74485;BMP280;62942;52.462;10.846;2023-10-31T01:20:11;98710;;;
74485;BMP280;62942;52.462;10.846;2023-10-31T01:21:21;98710;;;
74485;BMP280;62942;52.462;10.846;2023-10-31T01:22:31;98720;;;
74485;BMP280;62942;52.462;10.846;2023-10-31T01:23:41;98720;;;
74485;BMP280;62942;52.462;10.846;2023-10-31T01:24:41;98720;;;
74485;BMP280;62942;52.462;10.846;2023-10-31T01:25:51;98720;;;
74485;BMP280;62942;52.462;10.846;2023-10-31T01:27:01;98720;;;
74485;BMP280;62942;52.462;10.846;2023-10-31T01:28:11;98730;;;
74485;BMP280;62942;52.462;10.846;2023-10-31T01:29:21;98720;;;
74485;BMP280;62942;52.462;10.846;2023-10-31T01:30:21;98720;;;
74485;BMP280;62942;52.462;10.846;2023-10-31T01:31:31;98720;;;
74485;BMP280;62942;52.462;10.846;2023-10-31T01:32:31;98710;;;
74485;BMP280;62942;52.462;10.846;2023-10-31T01:33:41;98710;;;
74485;BMP280;62942;52.462;10.846;2023-10-31T01:34:43;98710;;;
74485;BMP280;62942;52.462;10.846;2023-10-31T01:35:51;98710;;;
74485;BMP280;62942;52.462;10.846;2023-10-31T01:37:01;98700;;;
74485;BMP280;62942;52.462;10.846;2023-10-31T01:38:11;98700;;;
74485;BMP280;62942;52.462;10.846;2023-10-31T01:39:11;98700;;;
74485;BMP280;62942;52.462;10.846;2023-10-31T01:40:21;98700;;;
74485;BMP280;62942;52.462;10.846;2023-10-31T01:41:31;98700;;;
74485;BMP280;62942;52.462;10.846;2023-10-31T01:42:41;98700;;;
74485;BMP280;62942;52.462;10.846;2023-10-31T01:43:41;98690;;;
74485;BMP280;62942;52.462;10.846;2023-10-31T01:44:51;98700;;;
74485;BMP280;62942;52.462;10.846;2023-10-31T01:45:51;98690;;;
74485;BMP280;62942;52.462;10.846;2023-10-31T01:47:01;98700;;;
74485;BMP280;62942;52.462;10.846;2023-10-31T01:48:11;98690;;;
74485;BMP280;62942;52.462;10.846;2023-10-31T01:49:21;98690;;;
74485;BMP280;62942;52.462;10.846;2023-10-31T01:50:21;98690;;;
74485;BMP280;62942;52.462;10.846;2023-10-31T01:51:31;98680;;;
74485;BMP280;62942;52.462;10.846;2023-10-31T01:52:31;98680;;;
74485;BMP280;62942;52.462;10.846;2023-10-31T01:53:41;98690;;;
74485;BMP280;62942;52.462;10.846;2023-10-31T01:54:41;98690;;;
74485;BMP280;62942;52.462;10.846;2023-10-31T01:55:51;98690;;;
74485;BMP280;62942;52.462;10.846;2023-10-31T01:57:01;98680;;;
74485;BMP280;62942;52.462;10.846;2023-10-31T01:58:01;98680;;;
74485;BMP280;62942;52.462;10.846;2023-10-31T01:59:11;98680;;;
74485;BMP280;62942;52.462;10.846;2023-10-31T02:00:12;98670;;;
74485;BMP280;62942;52.462;10.846;2023-10-31T02:01:21;98670;;;
74485;BMP280;62942;52.462;10.846;2023-10-31T02:02:31;98670;;;
74485;BMP280;62942;52.462;10.846;2023-10-31T02:03:41;98670;;;
74485;BMP280;62942;52.462;10.846;2023-10-31T02:04:41;98660;;;
74485;BMP280;62942;52.462;10.846;2023-10-31T02:05:51;98660;;;
74485;BMP280;62942;52.462;10.846;2023-10-31T02:06:51;98660;;;
74485;BMP280;62942;52.462;10.846;2023-10-31T02:08:01;98660;;;
74485;BMP280;62942;52.462;10.846;2023-10-31T02:09:11;98660;;;
74485;BMP280;62942;52.462;10.846;2023-10-31T02:10:21;98650;;;
74485;BMP280;62942;52.462;10.846;2023-10-31T02:11:21;98650;;;
74485;BMP280;62942;52.462;10.846;2023-10-31T02:12:32;98650;;;
74485;BMP280;62942;52.462;10.846;2023-10-31T02:13:41;98640;;;
74485;BMP280;62942;52.462;10.846;2023-10-31T02:14:41;98650;;;
74485;BMP280;62942;52.462;10.846;2023-10-31T02:15:51;98640;;;
74485;BMP280;62942;52.462;10.846;2023-10-31T02:17:01;98640;;;
74485;BMP280;62942;52.462;10.846;2023-10-31T02:18:01;98640;;;
74485;BMP280;62942;52.462;10.846;2023-10-31T02:19:01;98640;;;
74485;BMP280;62942;52.462;10.846;2023-10-31T02:20:11;98640;;;
74485;BMP280;62942;52.462;10.846;2023-10-31T02:21:21;98640;;;
74485;BMP280;62942;52.462;10.846;2023-10-31T02:22:21;98640;;;
74485;BMP280;62942;52.462;10.846;2023-10-31T02:23:31;98640;;;
74485;BMP280;62942;52.462;10.846;2023-10-31T02:24:41;98640;;;
74485;BMP280;62942;52.462;10.846;2023-10-31T02:25:41;98640;;;
74485;BMP280;62942;52.462;10.846;2023-10-31T02:26:51;98630;;;
74485;BMP280;62942;52.462;10.846;2023-10-31T02:27:51;98630;;;
74485;BMP280;62942;52.462;10.846;2023-10-31T02:29:01;98630;;;
74485;BMP280;62942;52.462;10.846;2023-10-31T02:30:11;98620;;;
74485;BMP280;62942;52.462;10.846;2023-10-31T02:31:11;98620;;;
74485;BMP280;62942;52.462;10.846;2023-10-31T02:32:21;98620;;;
74485;BMP280;62942;52.462;10.846;2023-10-31T02:33:21;98620;;;
74485;BMP280;62942;52.462;10.846;2023-10-31T02:34:31;98620;;;
74485;BMP280;62942;52.462;10.846;2023-10-31T02:35:31;98620;;;
74485;BMP280;62942;52.462;10.846;2023-10-31T02:36:41;98620;;;
74485;BMP280;62942;52.462;10.846;2023-10-31T02:37:41;98620;;;
74485;BMP280;62942;52.462;10.846;2023-10-31T02:38:51;98620;;;
74485;BMP280;62942;52.462;10.846;2023-10-31T02:39:51;98630;;;
74485;BMP280;62942;52.462;10.846;2023-10-31T02:41:01;98610;;;
74485;BMP280;62942;52.462;10.846;2023-10-31T02:42:01;98610;;;
74485;BMP280;62942;52.462;10.846;2023-10-31T02:43:11;98610;;;
74485;BMP280;62942;52.462;10.846;2023-10-31T02:44:11;98610;;;
74485;BMP280;62942;52.462;10.846;2023-10-31T02:45:21;98610;;;
74485;BMP280;62942;52.462;10.846;2023-10-31T02:46:21;98610;;;
74485;BMP280;62942;52.462;10.846;2023-10-31T02:47:31;98610;;;
74485;BMP280;62942;52.462;10.846;2023-10-31T02:48:41;98610;;;
74485;BMP280;62942;52.462;10.846;2023-10-31T02:49:41;98610;;;
74485;BMP280;62942;52.462;10.846;2023-10-31T02:50:51;98610;;;
74485;BMP280;62942;52.462;10.846;2023-10-31T02:51:51;98600;;;
74485;BMP280;62942;52.462;10.846;2023-10-31T02:53:01;98600;;;
74485;BMP280;62942;52.462;10.846;2023-10-31T02:54:01;98600;;;
74485;BMP280;62942;52.462;10.846;2023-10-31T02:55:11;98610;;;
74485;BMP280;62942;52.462;10.846;2023-10-31T02:56:21;98610;;;
74485;BMP280;62942;52.462;10.846;2023-10-31T02:57:21;98600;;;
74485;BMP280;62942;52.462;10.846;2023-10-31T02:58:21;98600;;;
74485;BMP280;62942;52.462;10.846;2023-10-31T02:59:31;98600;;;
74485;BMP280;62942;52.462;10.846;2023-10-31T03:00:31;98590;;;
74485;BMP280;62942;52.462;10.846;2023-10-31T03:01:41;98590;;;
74485;BMP280;62942;52.462;10.846;2023-10-31T03:02:51;98590;;;
74485;BMP280;62942;52.462;10.846;2023-10-31T03:03:51;98590;;;
74485;BMP280;62942;52.462;10.846;2023-10-31T03:05:01;98590;;;
74485;BMP280;62942;52.462;10.846;2023-10-31T03:06:01;98580;;;
74485;BMP280;62942;52.462;10.846;2023-10-31T03:07:11;98590;;;
74485;BMP280;62942;52.462;10.846;2023-10-31T03:08:11;98580;;;
74485;BMP280;62942;52.462;10.846;2023-10-31T03:09:21;98580;;;
74485;BMP280;62942;52.462;10.846;2023-10-31T03:10:21;98580;;;
74485;BMP280;62942;52.462;10.846;2023-10-31T03:11:31;98580;;;
74485;BMP280;62942;52.462;10.846;2023-10-31T03:12:41;98580;;;
74485;BMP280;62942;52.462;10.846;2023-10-31T03:13:41;98590;;;
74485;BMP280;62942;52.462;10.846;2023-10-31T03:14:51;98600;;;
74485;BMP280;62942;52.462;10.846;2023-10-31T03:15:51;98590;;;
74485;BMP280;62942;52.462;10.846;2023-10-31T03:17:01;98590;;;
74485;BMP280;62942;52.462;10.846;2023-10-31T03:18:01;98590;;;
74485;BMP280;62942;52.462;10.846;2023-10-31T03:19:11;98590;;;
74485;BMP280;62942;52.462;10.846;2023-10-31T03:20:11;98590;;;
74485;BMP280;62942;52.462;10.846;2023-10-31T03:21:21;98590;;;
74485;BMP280;62942;52.462;10.846;2023-10-31T03:22:21;98590;;;
74485;BMP280;62942;52.462;10.846;2023-10-31T03:23:31;98590;;;
74485;BMP280;62942;52.462;10.846;2023-10-31T03:24:31;98590;;;
74485;BMP280;62942;52.462;10.846;2023-10-31T03:25:31;98590;;;
74485;BMP280;62942;52.462;10.846;2023-10-31T03:26:41;98590;;;
74485;BMP280;62942;52.462;10.846;2023-10-31T03:27:41;98590;;;
74485;BMP280;62942;52.462;10.846;2023-10-31T03:28:51;98590;;;
74485;BMP280;62942;52.462;10.846;2023-10-31T03:30:01;98580;;;
74485;BMP280;62942;52.462;10.846;2023-10-31T03:31:01;98580;;;
74485;BMP280;62942;52.462;10.846;2023-10-31T03:32:11;98580;;;
74485;BMP280;62942;52.462;10.846;2023-10-31T03:33:22;98580;;;
74485;BMP280;62942;52.462;10.846;2023-10-31T03:34:21;98580;;;
74485;BMP280;62942;52.462;10.846;2023-10-31T03:35:31;98580;;;
74485;BMP280;62942;52.462;10.846;2023-10-31T03:36:31;98580;;;
74485;BMP280;62942;52.462;10.846;2023-10-31T03:37:41;98580;;;
74485;BMP280;62942;52.462;10.846;2023-10-31T03:38:51;98590;;;
74485;BMP280;62942;52.462;10.846;2023-10-31T03:39:51;98580;;;
74485;BMP280;62942;52.462;10.846;2023-10-31T03:41:01;98590;;;
74485;BMP280;62942;52.462;10.846;2023-10-31T03:42:01;98590;;;
74485;BMP280;62942;52.462;10.846;2023-10-31T03:43:11;98590;;;
74485;BMP280;62942;52.462;10.846;2023-10-31T03:44:21;98600;;;
74485;BMP280;62942;52.462;10.846;2023-10-31T03:45:31;98600;;;
74485;BMP280;62942;52.462;10.846;2023-10-31T03:46:31;98600;;;
74485;BMP280;62942;52.462;10.846;2023-10-31T03:47:41;98600;;;
74485;BMP280;62942;52.462;10.846;2023-10-31T03:48:51;98600;;;
74485;BMP280;62942;52.462;10.846;2023-10-31T03:49:51;98600;;;
74485;BMP280;62942;52.462;10.846;2023-10-31T03:51:01;98600;;;
74485;BMP280;62942;52.462;10.846;2023-10-31T03:52:11;98590;;;
74485;BMP280;62942;52.462;10.846;2023-10-31T03:53:21;98590;;;
74485;BMP280;62942;52.462;10.846;2023-10-31T03:54:31;98590;;;
74485;BMP280;62942;52.462;10.846;2023-10-31T03:55:41;98590;;;
74485;BMP280;62942;52.462;10.846;2023-10-31T03:56:41;98580;;;
74485;BMP280;62942;52.462;10.846;2023-10-31T03:57:41;98580;;;
74485;BMP280;62942;52.462;10.846;2023-10-31T03:58:51;98590;;;
74485;BMP280;62942;52.462;10.846;2023-10-31T03:59:51;98590;;;
74485;BMP280;62942;52.462;10.846;2023-10-31T04:01:01;98590;;;
74485;BMP280;62942;52.462;10.846;2023-10-31T04:02:11;98590;;;
74485;BMP280;62942;52.462;10.846;2023-10-31T04:03:11;98580;;;
74485;BMP280;62942;52.462;10.846;2023-10-31T04:04:11;98590;;;
74485;BMP280;62942;52.462;10.846;2023-10-31T04:05:21;98590;;;
74485;BMP280;62942;52.462;10.846;2023-10-31T04:06:31;98590;;;
74485;BMP280;62942;52.462;10.846;2023-10-31T04:07:31;98590;;;
74485;BMP280;62942;52.462;10.846;2023-10-31T04:08:41;98580;;;
74485;BMP280;62942;52.462;10.846;2023-10-31T04:09:41;98580;;;
74485;BMP280;62942;52.462;10.846;2023-10-31T04:10:51;98580;;;
74485;BMP280;62942;52.462;10.846;2023-10-31T04:11:51;98580;;;
74485;BMP280;62942;52.462;10.846;2023-10-31T04:13:01;98580;;;
74485;BMP280;62942;52.462;10.846;2023-10-31T04:14:11;98570;;;
74485;BMP280;62942;52.462;10.846;2023-10-31T04:15:21;98570;;;
74485;BMP280;62942;52.462;10.846;2023-10-31T04:16:21;98570;;;
74485;BMP280;62942;52.462;10.846;2023-10-31T04:17:21;98570;;;
74485;BMP280;62942;52.462;10.846;2023-10-31T04:18:31;98570;;;
74485;BMP280;62942;52.462;10.846;2023-10-31T04:19:41;98570;;;
74485;BMP280;62942;52.462;10.846;2023-10-31T04:20:41;98570;;;
74485;BMP280;62942;52.462;10.846;2023-10-31T04:21:52;98580;;;
74485;BMP280;62942;52.462;10.846;2023-10-31T04:23:01;98570;;;
74485;BMP280;62942;52.462;10.846;2023-10-31T04:24:01;98580;;;
74485;BMP280;62942;52.462;10.846;2023-10-31T04:25:11;98570;;;
74485;BMP280;62942;52.462;10.846;2023-10-31T04:26:21;98580;;;
74485;BMP280;62942;52.462;10.846;2023-10-31T04:27:21;98580;;;
74485;BMP280;62942;52.462;10.846;2023-10-31T04:28:31;98580;;;
74485;BMP280;62942;52.462;10.846;2023-10-31T04:29:41;98580;;;
74485;BMP280;62942;52.462;10.846;2023-10-31T04:30:51;98590;;;
74485;BMP280;62942;52.462;10.846;2023-10-31T04:31:51;98590;;;
74485;BMP280;62942;52.462;10.846;2023-10-31T04:33:01;98580;;;
74485;BMP280;62942;52.462;10.846;2023-10-31T04:34:01;98580;;;
74485;BMP280;62942;52.462;10.846;2023-10-31T04:35:11;98580;;;
74485;BMP280;62942;52.462;10.846;2023-10-31T04:36:21;98580;;;
74485;BMP280;62942;52.462;10.846;2023-10-31T04:37:31;98590;;;
74485;BMP280;62942;52.462;10.846;2023-10-31T04:38:41;98580;;;
74485;BMP280;62942;52.462;10.846;2023-10-31T04:39:51;98590;;;
74485;BMP280;62942;52.462;10.846;2023-10-31T04:41:01;98590;;;
74485;BMP280;62942;52.462;10.846;2023-10-31T04:42:11;98580;;;
74485;BMP280;62942;52.462;10.846;2023-10-31T04:43:21;98580;;;
74485;BMP280;62942;52.462;10.846;2023-10-31T04:44:31;98590;;;
74485;BMP280;62942;52.462;10.846;2023-10-31T04:45:41;98590;;;
74485;BMP280;62942;52.462;10.846;2023-10-31T04:46:41;98590;;;
74485;BMP280;62942;52.462;10.846;2023-10-31T04:47:51;98580;;;
74485;BMP280;62942;52.462;10.846;2023-10-31T04:48:51;98590;;;
74485;BMP280;62942;52.462;10.846;2023-10-31T04:49:51;98590;;;
74485;BMP280;62942;52.462;10.846;2023-10-31T04:50:51;98610;;;
74485;BMP280;62942;52.462;10.846;2023-10-31T04:52:01;98620;;;
74485;BMP280;62942;52.462;10.846;2023-10-31T04:53:11;98630;;;
74485;BMP280;62942;52.462;10.846;2023-10-31T04:54:21;98600;;;
74485;BMP280;62942;52.462;10.846;2023-10-31T04:55:31;98630;;;
74485;BMP280;62942;52.462;10.846;2023-10-31T04:56:41;98620;;;
74485;BMP280;62942;52.462;10.846;2023-10-31T04:57:51;98630;;;
74485;BMP280;62942;52.462;10.846;2023-10-31T04:58:51;98620;;;
74485;BMP280;62942;52.462;10.846;2023-10-31T05:00:02;98620;;;
74485;BMP280;62942;52.462;10.846;2023-10-31T05:01:11;98630;;;
74485;BMP280;62942;52.462;10.846;2023-10-31T05:02:11;98630;;;
74485;BMP280;62942;52.462;10.846;2023-10-31T05:03:21;98610;;;
74485;BMP280;62942;52.462;10.846;2023-10-31T05:04:21;98620;;;
74485;BMP280;62942;52.462;10.846;2023-10-31T05:05:21;98610;;;
74485;BMP280;62942;52.462;10.846;2023-10-31T05:06:31;98620;;;
74485;BMP280;62942;52.462;10.846;2023-10-31T05:07:41;98630;;;
74485;BMP280;62942;52.462;10.846;2023-10-31T05:08:51;98630;;;
74485;BMP280;62942;52.462;10.846;2023-10-31T05:09:51;98620;;;
74485;BMP280;62942;52.462;10.846;2023-10-31T05:11:01;98630;;;
74485;BMP280;62942;52.462;10.846;2023-10-31T05:12:03;98630;;;
74485;BMP280;62942;52.462;10.846;2023-10-31T05:13:11;98620;;;
74485;BMP280;62942;52.462;10.846;2023-10-31T05:14:21;98620;;;
74485;BMP280;62942;52.462;10.846;2023-10-31T05:15:22;98630;;;
74485;BMP280;62942;52.462;10.846;2023-10-31T05:16:38;98620;;;
74485;BMP280;62942;52.462;10.846;2023-10-31T05:17:41;98610;;;
74485;BMP280;62942;52.462;10.846;2023-10-31T05:18:51;98620;;;
74485;BMP280;62942;52.462;10.846;2023-10-31T05:20:01;98610;;;
74485;BMP280;62942;52.462;10.846;2023-10-31T05:21:01;98620;;;
74485;BMP280;62942;52.462;10.846;2023-10-31T05:22:11;98620;;;
74485;BMP280;62942;52.462;10.846;2023-10-31T05:23:21;98630;;;
74485;BMP280;62942;52.462;10.846;2023-10-31T05:24:31;98630;;;
74485;BMP280;62942;52.462;10.846;2023-10-31T05:25:41;98620;;;
74485;BMP280;62942;52.462;10.846;2023-10-31T05:26:51;98630;;;
74485;BMP280;62942;52.462;10.846;2023-10-31T05:28:01;98640;;;
74485;BMP280;62942;52.462;10.846;2023-10-31T05:29:01;98640;;;
74485;BMP280;62942;52.462;10.846;2023-10-31T05:30:12;98620;;;
74485;BMP280;62942;52.462;10.846;2023-10-31T05:31:21;98620;;;
74485;BMP280;62942;52.462;10.846;2023-10-31T05:32:31;98620;;;
74485;BMP280;62942;52.462;10.846;2023-10-31T05:33:41;98620;;;
74485;BMP280;62942;52.462;10.846;2023-10-31T05:34:51;98620;;;
74485;BMP280;62942;52.462;10.846;2023-10-31T05:36:01;98620;;;
74485;BMP280;62942;52.462;10.846;2023-10-31T05:37:01;98630;;;
74485;BMP280;62942;52.462;10.846;2023-10-31T05:38:01;98620;;;
74485;BMP280;62942;52.462;10.846;2023-10-31T05:39:11;98620;;;
74485;BMP280;62942;52.462;10.846;2023-10-31T05:40:21;98630;;;
74485;BMP280;62942;52.462;10.846;2023-10-31T05:41:22;98630;;;
74485;BMP280;62942;52.462;10.846;2023-10-31T05:42:31;98630;;;
74485;BMP280;62942;52.462;10.846;2023-10-31T05:43:31;98640;;;
74485;BMP280;62942;52.462;10.846;2023-10-31T05:44:41;98640;;;
74485;BMP280;62942;52.462;10.846;2023-10-31T05:45:41;98640;;;
74485;BMP280;62942;52.462;10.846;2023-10-31T05:46:51;98640;;;
74485;BMP280;62942;52.462;10.846;2023-10-31T05:48:01;98640;;;
74485;BMP280;62942;52.462;10.846;2023-10-31T05:49:11;98640;;;
74485;BMP280;62942;52.462;10.846;2023-10-31T05:50:21;98640;;;
74485;BMP280;62942;52.462;10.846;2023-10-31T05:51:31;98640;;;
74485;BMP280;62942;52.462;10.846;2023-10-31T05:52:41;98640;;;
74485;BMP280;62942;52.462;10.846;2023-10-31T05:53:51;98640;;;
74485;BMP280;62942;52.462;10.846;2023-10-31T05:54:51;98640;;;
74485;BMP280;62942;52.462;10.846;2023-10-31T05:55:51;98650;;;
74485;BMP280;62942;52.462;10.846;2023-10-31T05:57:01;98650;;;
74485;BMP280;62942;52.462;10.846;2023-10-31T05:58:11;98650;;;
74485;BMP280;62942;52.462;10.846;2023-10-31T05:59:21;98650;;;
74485;BMP280;62942;52.462;10.846;2023-10-31T06:00:31;98660;;;
74485;BMP280;62942;52.462;10.846;2023-10-31T06:01:41;98650;;;
74485;BMP280;62942;52.462;10.846;2023-10-31T06:02:51;98650;;;
74485;BMP280;62942;52.462;10.846;2023-10-31T06:04:01;98660;;;
74485;BMP280;62942;52.462;10.846;2023-10-31T06:05:11;98670;;;
74485;BMP280;62942;52.462;10.846;2023-10-31T06:06:21;98660;;;
74485;BMP280;62942;52.462;10.846;2023-10-31T06:07:21;98670;;;
74485;BMP280;62942;52.462;10.846;2023-10-31T06:08:31;98660;;;
74485;BMP280;62942;52.462;10.846;2023-10-31T06:09:41;98670;;;
74485;BMP280;62942;52.462;10.846;2023-10-31T06:10:41;98670;;;
74485;BMP280;62942;52.462;10.846;2023-10-31T06:11:51;98680;;;
74485;BMP280;62942;52.462;10.846;2023-10-31T06:13:01;98670;;;
74485;BMP280;62942;52.462;10.846;2023-10-31T06:14:01;98670;;;
74485;BMP280;62942;52.462;10.846;2023-10-31T06:15:11;98670;;;
74485;BMP280;62942;52.462;10.846;2023-10-31T06:16:21;98670;;;
74485;BMP280;62942;52.462;10.846;2023-10-31T06:17:21;98680;;;
74485;BMP280;62942;52.462;10.846;2023-10-31T06:18:31;98680;;;
74485;BMP280;62942;52.462;10.846;2023-10-31T06:19:33;98690;;;
74485;BMP280;62942;52.462;10.846;2023-10-31T06:20:41;98690;;;
74485;BMP280;62942;52.462;10.846;2023-10-31T06:21:51;98690;;;
74485;BMP280;62942;52.462;10.846;2023-10-31T06:22:51;98690;;;
74485;BMP280;62942;52.462;10.846;2023-10-31T06:24:01;98690;;;
74485;BMP280;62942;52.462;10.846;2023-10-31T06:25:11;98690;;;
74485;BMP280;62942;52.462;10.846;2023-10-31T06:26:21;98690;;;
74485;BMP280;62942;52.462;10.846;2023-10-31T06:27:21;98700;;;
74485;BMP280;62942;52.462;10.846;2023-10-31T06:28:22;98690;;;
74485;BMP280;62942;52.462;10.846;2023-10-31T06:29:31;98700;;;
74485;BMP280;62942;52.462;10.846;2023-10-31T06:30:41;98700;;;
74485;BMP280;62942;52.462;10.846;2023-10-31T06:31:51;98700;;;
74485;BMP280;62942;52.462;10.846;2023-10-31T06:33:01;98700;;;
74485;BMP280;62942;52.462;10.846;2023-10-31T06:34:01;98700;;;
74485;BMP280;62942;52.462;10.846;2023-10-31T06:35:11;98700;;;
74485;BMP280;62942;52.462;10.846;2023-10-31T06:36:11;98700;;;
74485;BMP280;62942;52.462;10.846;2023-10-31T06:37:11;98700;;;
74485;BMP280;62942;52.462;10.846;2023-10-31T06:38:11;98700;;;
74485;BMP280;62942;52.462;10.846;2023-10-31T06:39:21;98700;;;
74485;BMP280;62942;52.462;10.846;2023-10-31T06:40:21;98710;;;
74485;BMP280;62942;52.462;10.846;2023-10-31T06:41:31;98700;;;
74485;BMP280;62942;52.462;10.846;2023-10-31T06:42:31;98720;;;
74485;BMP280;62942;52.462;10.846;2023-10-31T06:43:41;98710;;;
74485;BMP280;62942;52.462;10.846;2023-10-31T06:44:51;98720;;;
74485;BMP280;62942;52.462;10.846;2023-10-31T06:45:51;98720;;;
74485;BMP280;62942;52.462;10.846;2023-10-31T06:47:01;98720;;;
74485;BMP280;62942;52.462;10.846;2023-10-31T06:48:11;98730;;;
74485;BMP280;62942;52.462;10.846;2023-10-31T06:49:11;98720;;;
74485;BMP280;62942;52.462;10.846;2023-10-31T06:50:21;98720;;;
74485;BMP280;62942;52.462;10.846;2023-10-31T06:51:21;98710;;;
74485;BMP280;62942;52.462;10.846;2023-10-31T06:52:21;98720;;;
74485;BMP280;62942;52.462;10.846;2023-10-31T06:53:31;98720;;;
74485;BMP280;62942;52.462;10.846;2023-10-31T06:54:41;98720;;;
74485;BMP280;62942;52.462;10.846;2023-10-31T06:55:41;98720;;;
74485;BMP280;62942;52.462;10.846;2023-10-31T06:56:51;98720;;;
74485;BMP280;62942;52.462;10.846;2023-10-31T06:58:01;98720;;;
74485;BMP280;62942;52.462;10.846;2023-10-31T06:59:01;98720;;;
74485;BMP280;62942;52.462;10.846;2023-10-31T07:00:11;98720;;;
74485;BMP280;62942;52.462;10.846;2023-10-31T07:01:21;98730;;;
74485;BMP280;62942;52.462;10.846;2023-10-31T07:02:31;98730;;;
74485;BMP280;62942;52.462;10.846;2023-10-31T07:03:31;98710;;;
74485;BMP280;62942;52.462;10.846;2023-10-31T07:04:31;98720;;;
74485;BMP280;62942;52.462;10.846;2023-10-31T07:05:41;98720;;;
74485;BMP280;62942;52.462;10.846;2023-10-31T07:06:51;98720;;;
74485;BMP280;62942;52.462;10.846;2023-10-31T07:07:51;98720;;;